Pretty Hana — DSQJ5 — position and weather

sailwx.info

Track history (hours):
 
Tides and Currents Weather Stations Pressure Air Temp Water Temp Dewpoint Dewpoint Depression Visibility Wind Speed Wind Dir Waves Ship Positions

Pretty Hana

Last reported at 2014-Aug-25 13:13 UTC. Time now 2014-Sep-01 07:52 UTC.
Position N 30°59' E 122°34'.

Length 65 m; draft 4.5 m.

Type: Cargo ship. MMSI: 441600000.

Date/timePositionNaut miles runAvg speedWind from/ knotsBaromVisibWave heightAir tempDewpointWater temp
2014-Aug-25 13:13N 30°59' E 122°34'5110.5
2014-Aug-25 08:23N 31°20' E 121°40'911.2
2014-Aug-25 07:33N 31°25' E 121°31'1211.6
2014-Aug-25 06:29N 31°33' E 121°20'22 9.9
2014-Aug-25 04:18N 31°47' E 120°60'911.1
2014-Aug-25 03:30N 31°53' E 120°53'1212.3
2014-Aug-25 02:34N 32°00' E 120°42'7 7.1
2014-Aug-25 01:33N 31°60' E 120°34'0 0.0
2014-Aug-25 00:26N 31°60' E 120°34'0 0.0
2014-Aug-24 23:29N 31°60' E 120°34'0 0.0
2014-Aug-24 22:32N 31°60' E 120°34'0 0.0
2014-Aug-24 21:29N 31°60' E 120°34'0 0.0
2014-Aug-24 20:26N 31°60' E 120°34'0 0.0
2014-Aug-24 19:29N 31°60' E 120°34'0 0.0
2014-Aug-24 18:33N 31°60' E 120°34'0 0.0
2014-Aug-24 17:32N 31°60' E 120°34'0 0.0
2014-Aug-24 16:32N 31°60' E 120°34'0 0.0
2014-Aug-24 15:32N 31°60' E 120°34'0 0.0
2014-Aug-24 14:32N 31°60' E 120°34'0 0.0
2014-Aug-24 13:32N 31°60' E 120°34'0 0.0
2014-Aug-24 12:32N 31°60' E 120°34'0 0.0
2014-Aug-24 11:26N 31°60' E 120°34'0 0.0
2014-Aug-24 10:32N 31°60' E 120°34'0 0.0
2014-Aug-24 09:23N 31°60' E 120°34'0 0.0
2014-Aug-24 08:26N 31°60' E 120°34'0 0.0
2014-Aug-24 07:29N 31°60' E 120°34'0 0.0
2014-Aug-24 06:32N 31°60' E 120°34'0 0.0
2014-Aug-24 05:32N 31°60' E 120°34'0 0.0
2014-Aug-24 04:29N 31°60' E 120°34'0 0.0
2014-Aug-24 03:33N 31°60' E 120°34'0 0.0
2014-Aug-24 02:32N 31°60' E 120°34'0 0.0
2014-Aug-24 01:27N 31°60' E 120°34'0 0.0
2014-Aug-24 00:32N 31°60' E 120°34'0 0.0
2014-Aug-23 23:32N 31°60' E 120°34'0 0.0
2014-Aug-23 22:32N 31°60' E 120°34'1 1.3
2014-Aug-23 21:33N 32°01' E 120°34'6 6.3
2014-Aug-23 20:33N 32°00' E 120°41'8 7.8
2014-Aug-23 19:33N 31°59' E 120°50'  
2014-Aug-17 02:12N 33°58' E 132°43'  
Track history (hours):
 
Tides and Currents Weather Stations Pressure Air Temp Water Temp Dewpoint Dewpoint Depression Visibility Wind Speed Wind Dir Waves Ship Positions

Pretty Hana

Last reported at 2014-Aug-25 13:13 UTC. Time now 2014-Sep-01 07:52 UTC.
Position N 30°59' E 122°34'.

Length 65 m; draft 4.5 m.

Type: Cargo ship. MMSI: 441600000.

Date/timePositionNaut miles runAvg speedWind from/ knotsBaromVisibWave heightAir tempDewpointWater temp
2014-Aug-25 13:13N 30°59' E 122°34'5110.5
2014-Aug-25 08:23N 31°20' E 121°40'911.2
2014-Aug-25 07:33N 31°25' E 121°31'1211.6
2014-Aug-25 06:29N 31°33' E 121°20'22 9.9
2014-Aug-25 04:18N 31°47' E 120°60'911.1
2014-Aug-25 03:30N 31°53' E 120°53'1212.3
2014-Aug-25 02:34N 32°00' E 120°42'7 7.1
2014-Aug-25 01:33N 31°60' E 120°34'0 0.0
2014-Aug-25 00:26N 31°60' E 120°34'0 0.0
2014-Aug-24 23:29N 31°60' E 120°34'0 0.0
2014-Aug-24 22:32N 31°60' E 120°34'0 0.0
2014-Aug-24 21:29N 31°60' E 120°34'0 0.0
2014-Aug-24 20:26N 31°60' E 120°34'0 0.0
2014-Aug-24 19:29N 31°60' E 120°34'0 0.0
2014-Aug-24 18:33N 31°60' E 120°34'0 0.0
2014-Aug-24 17:32N 31°60' E 120°34'0 0.0
2014-Aug-24 16:32N 31°60' E 120°34'0 0.0
2014-Aug-24 15:32N 31°60' E 120°34'0 0.0
2014-Aug-24 14:32N 31°60' E 120°34'0 0.0
2014-Aug-24 13:32N 31°60' E 120°34'0 0.0
2014-Aug-24 12:32N 31°60' E 120°34'0 0.0
2014-Aug-24 11:26N 31°60' E 120°34'0 0.0
2014-Aug-24 10:32N 31°60' E 120°34'0 0.0
2014-Aug-24 09:23N 31°60' E 120°34'0 0.0
2014-Aug-24 08:26N 31°60' E 120°34'0 0.0
2014-Aug-24 07:29N 31°60' E 120°34'0 0.0
2014-Aug-24 06:32N 31°60' E 120°34'0 0.0
2014-Aug-24 05:32N 31°60' E 120°34'0 0.0
2014-Aug-24 04:29N 31°60' E 120°34'0 0.0
2014-Aug-24 03:33N 31°60' E 120°34'0 0.0
2014-Aug-24 02:32N 31°60' E 120°34'0 0.0
2014-Aug-24 01:27N 31°60' E 120°34'0 0.0
2014-Aug-24 00:32N 31°60' E 120°34'0 0.0
2014-Aug-23 23:32N 31°60' E 120°34'0 0.0
2014-Aug-23 22:32N 31°60' E 120°34'1 1.3
2014-Aug-23 21:33N 32°01' E 120°34'6 6.3
2014-Aug-23 20:33N 32°00' E 120°41'8 7.8
2014-Aug-23 19:33N 31°59' E 120°50'  
2014-Aug-17 02:12N 33°58' E 132°43'  

Dump ship's entire track history